Time;durP1;ratioP1;P1;durP2;ratioP2;P2;SDS_P1;SDS_P2;PMS_P1;PMS_P2;Temp;Humidity;BMP_temperature;BMP_pressure;BME280_temperature;BME280_humidity;BME280_pressure;Samples;Min_cycle;Max_cycle;Signal;HPM_P1;HPM_P2
2023/04/25 00:02:14;;;;;;;;;;;;;;;12.22;67.45;100125.06;10582769;28;19931;-76
2023/04/25 00:07:17;;;;;;;;;;;;;;;12.19;67.73;100138.63;10595883;28;20321;-76
2023/04/25 00:12:21;;;;;;;;;;;;;;;12.13;68.01;100135.13;10593649;28;19953;-76
2023/04/25 00:17:24;;;;;;;;;;;;;;;11.98;68.44;100127.19;10603872;28;19924;-75
2023/04/25 00:22:26;;;;;;;;;;;;;;;11.88;69.74;100124.59;10577408;28;19931;-75
2023/04/25 00:27:28;;;;;;;;;;;;;;;11.77;70.17;100132.16;10597176;27;20474;-75
2023/04/25 00:32:30;;;;;;;;;;;;;;;11.67;70.02;100133.19;10591616;27;19924;-75
2023/04/25 00:37:32;;;;;;;;;;;;;;;11.58;70.44;100123.97;10598389;28;19924;-75
2023/04/25 00:42:35;;;;;;;;;;;;;;;11.51;70.99;100123.56;10569756;28;20309;-75
2023/04/25 00:47:37;;;;;;;;;;;;;;;11.54;71.25;100130.38;10583040;28;19924;-75
2023/04/25 00:52:40;;;;;;;;;;;;;;;11.66;70.16;100126.06;10592741;28;19971;-75
2023/04/25 00:57:42;;;;;;;;;;;;;;;11.68;71.02;100128.50;10595939;28;20305;-75
2023/04/25 01:02:44;;;;;;;;;;;;;;;11.59;71.01;100116.53;10563116;28;20429;-75
2023/04/25 01:07:47;;;;;;;;;;;;;;;11.58;70.95;100118.47;10566304;28;19966;-76
2023/04/25 01:12:49;;;;;;;;;;;;;;;11.49;70.98;100128.53;10573706;28;19935;-75
2023/04/25 01:17:51;;;;;;;;;;;;;;;11.35;70.57;100127.66;10590405;28;19934;-75
2023/04/25 01:22:53;;;;;;;;;;;;;;;11.43;70.47;100118.72;10587322;28;19934;-74
2023/04/25 01:27:55;;;;;;;;;;;;;;;11.41;70.12;100121.78;10597810;28;20019;-74
2023/04/25 01:32:57;;;;;;;;;;;;;;;11.37;69.95;100131.72;10574302;28;20310;-75
2023/04/25 01:38:00;;;;;;;;;;;;;;;11.44;68.78;100123.09;10557189;28;19920;-75
2023/04/25 01:43:02;;;;;;;;;;;;;;;11.40;66.62;100124.81;10569007;28;19924;-74
2023/04/25 01:48:04;;;;;;;;;;;;;;;11.44;66.06;100112.94;10563879;28;19928;-74
2023/04/25 01:53:06;;;;;;;;;;;;;;;11.47;66.13;100119.78;10570902;28;20026;-74
2023/04/25 01:58:09;;;;;;;;;;;;;;;11.53;65.15;100115.00;10557265;28;19946;-75
2023/04/25 02:03:40;;;;;;;;;;;;;;;11.67;65.07;100116.69;10569531;28;19930;-74
2023/04/25 02:08:48;;;;;;;;;;;;;;;11.94;64.04;100124.19;10577702;28;19924;-75
2023/04/25 02:13:50;;;;;;;;;;;;;;;11.76;64.85;100108.56;10564388;28;19924;-74
2023/04/25 02:19:16;;;;;;;;;;;;;;;11.62;65.30;100114.00;10558367;28;19931;-75
2023/04/25 02:24:18;;;;;;;;;;;;;;;11.49;64.88;100120.28;10586667;28;19955;-75
2023/04/25 02:29:20;;;;;;;;;;;;;;;11.60;64.97;100116.25;10607970;28;19930;-75
2023/04/25 02:34:27;;;;;;;;;;;;;;;11.54;63.91;100114.72;10553203;28;19928;-75
2023/04/25 02:39:29;;;;;;;;;;;;;;;11.54;63.72;100122.94;10591093;28;20428;-75
2023/04/25 02:44:31;;;;;;;;;;;;;;;11.40;64.00;100122.06;10541355;28;19934;-75
2023/04/25 02:49:33;;;;;;;;;;;;;;;11.38;63.20;100119.63;10582199;28;20416;-75
2023/04/25 02:54:35;;;;;;;;;;;;;;;11.50;62.06;100123.84;10573838;28;20018;-75
2023/04/25 02:59:38;;;;;;;;;;;;;;;11.61;61.07;100120.63;10571325;28;19931;-75
2023/04/25 03:04:40;;;;;;;;;;;;;;;11.74;60.54;100116.28;10603303;27;19946;-75
2023/04/25 03:09:47;;;;;;;;;;;;;;;12.18;58.93;100115.78;10588603;28;19924;-75
2023/04/25 03:14:50;;;;;;;;;;;;;;;12.65;56.54;100125.56;10579312;28;19923;-75
2023/04/25 03:19:52;;;;;;;;;;;;;;;13.06;55.42;100126.63;10592353;28;19927;-75
2023/04/25 03:24:54;;;;;;;;;;;;;;;13.40;53.88;100123.38;10573071;28;19936;-75
2023/04/25 03:29:56;;;;;;;;;;;;;;;13.63;52.36;100127.75;10601072;28;19931;-75
2023/04/25 03:34:59;;;;;;;;;;;;;;;13.82;52.69;100131.13;10566314;28;19924;-75
2023/04/25 03:40:03;;;;;;;;;;;;;;;14.11;51.19;100130.63;10570470;28;19931;-74
2023/04/25 03:45:25;;;;;;;;;;;;;;;14.69;49.58;100131.53;10580948;28;19924;-74
2023/04/25 03:50:33;;;;;;;;;;;;;;;14.94;49.08;100136.31;10596283;28;19931;-74
2023/04/25 03:55:35;;;;;;;;;;;;;;;15.00;47.59;100137.78;10568021;28;19924;-75
2023/04/25 04:00:43;;;;;;;;;;;;;;;15.39;47.17;100141.53;10576713;28;19931;-76
2023/04/25 04:05:46;;;;;;;;;;;;;;;15.76;45.93;100136.50;10596300;28;19931;-76
2023/04/25 04:10:48;;;;;;;;;;;;;;;15.93;45.58;100140.03;10571366;28;19924;-76
2023/04/25 04:15:50;;;;;;;;;;;;;;;16.04;45.04;100139.69;10579998;28;20313;-76
2023/04/25 04:20:53;;;;;;;;;;;;;;;15.81;45.08;100139.91;10558373;28;19947;-76
2023/04/25 04:26:00;;;;;;;;;;;;;;;16.12;44.29;100141.63;10559290;28;19931;-76
2023/04/25 04:31:26;;;;;;;;;;;;;;;16.28;44.04;100134.41;10594362;28;19947;-76
2023/04/25 04:36:29;;;;;;;;;;;;;;;16.77;42.67;100143.97;10598257;28;19924;-76
2023/04/25 04:41:32;;;;;;;;;;;;;;;16.16;42.86;100140.66;10564097;28;19923;-76
2023/04/25 04:46:50;;;;;;;;;;;;;;;16.64;42.31;100144.97;10615587;28;19931;-76
2023/04/25 04:52:13;;;;;;;;;;;;;;;17.16;41.27;100134.41;10593214;28;19923;-76
2023/04/25 04:57:30;;;;;;;;;;;;;;;17.45;40.23;100135.50;10579400;28;19931;-76
2023/04/25 05:02:46;;;;;;;;;;;;;;;16.83;40.78;100131.56;10590985;28;19931;-76
2023/04/25 05:08:09;;;;;;;;;;;;;;;16.45;41.76;100137.09;10579508;27;19931;-75
2023/04/25 05:13:37;;;;;;;;;;;;;;;16.00;42.50;100133.19;10590345;28;20305;-75
2023/04/25 05:18:50;;;;;;;;;;;;;;;15.72;43.28;100138.28;10571331;28;20375;-75
2023/04/25 05:24:11;;;;;;;;;;;;;;;16.89;41.99;100129.41;10578211;28;19931;-75
2023/04/25 05:29:31;;;;;;;;;;;;;;;16.68;41.64;100142.41;10580320;28;19924;-74
2023/04/25 05:34:39;;;;;;;;;;;;;;;16.75;41.14;100137.16;10574678;28;20534;-73
2023/04/25 05:39:53;;;;;;;;;;;;;;;16.82;40.96;100135.47;10610326;28;19950;-74
2023/04/25 05:45:22;;;;;;;;;;;;;;;16.59;41.79;100140.44;10565710;28;19947;-80
2023/04/25 05:50:47;;;;;;;;;;;;;;;16.80;41.03;100139.72;10542401;28;19931;-75
2023/04/25 05:55:59;;;;;;;;;;;;;;;16.82;40.86;100134.66;10575482;28;19927;-73
2023/04/25 06:01:03;;;;;;;;;;;;;;;16.27;41.76;100135.53;10595655;28;19927;-73
2023/04/25 06:06:05;;;;;;;;;;;;;;;16.35;42.02;100136.66;10617178;27;19923;-73
2023/04/25 06:11:07;;;;;;;;;;;;;;;16.57;41.54;100139.16;10581909;27;19924;-73
2023/04/25 06:16:09;;;;;;;;;;;;;;;17.23;40.78;100139.44;10572389;28;19928;-77
2023/04/25 06:21:17;;;;;;;;;;;;;;;17.62;39.91;100142.88;10551970;28;19924;-73
2023/04/25 06:26:19;;;;;;;;;;;;;;;17.16;40.92;100142.72;10601472;28;19931;-72
2023/04/25 06:31:23;;;;;;;;;;;;;;;16.96;41.41;100140.75;10583066;28;20725;-73
2023/04/25 06:36:27;;;;;;;;;;;;;;;17.19;40.87;100138.50;10556843;28;20405;-74
2023/04/25 06:41:35;;;;;;;;;;;;;;;17.38;41.37;100136.06;10581587;28;19924;-75
2023/04/25 06:46:41;;;;;;;;;;;;;;;18.91;38.00;100132.22;10610936;27;19923;-73
2023/04/25 06:51:44;;;;;;;;;;;;;;;19.95;36.87;100134.13;10628661;27;20335;-74
2023/04/25 06:56:46;;;;;;;;;;;;;;;20.69;35.09;100126.09;10616298;27;19923;-74
2023/04/25 07:01:50;;;;;;;;;;;;;;;21.33;34.35;100125.59;10636706;27;19946;-73
2023/04/25 07:07:02;;;;;;;;;;;;;;;21.54;33.87;100116.88;10667643;27;19923;-74
2023/04/25 07:12:27;;;;;;;;;;;;;;;22.43;32.36;100121.34;10685561;27;19923;-74
2023/04/25 07:17:29;;;;;;;;;;;;;;;22.67;32.16;100122.94;10658509;27;20388;-75
2023/04/25 07:22:32;;;;;;;;;;;;;;;23.06;31.33;100114.34;10669474;27;19927;-73
2023/04/25 07:27:34;;;;;;;;;;;;;;;24.30;29.79;100115.09;10664021;27;19923;-74
2023/04/25 07:32:47;;;;;;;;;;;;;;;24.51;28.99;100115.25;10655942;27;20034;-74
2023/04/25 07:37:50;;;;;;;;;;;;;;;24.37;28.96;100105.91;10648602;27;19931;-74
2023/04/25 07:43:00;;;;;;;;;;;;;;;24.57;27.81;100107.28;10670813;27;20665;-72
2023/04/25 07:48:09;;;;;;;;;;;;;;;25.11;26.64;100108.47;10678035;27;19930;-72
2023/04/25 07:53:14;;;;;;;;;;;;;;;25.24;26.30;100106.94;10699606;27;19931;-73
2023/04/25 07:58:22;;;;;;;;;;;;;;;25.92;25.34;100101.59;10663649;27;19927;-73
2023/04/25 08:03:29;;;;;;;;;;;;;;;25.82;24.86;100097.56;10688241;27;19986;-75
2023/04/25 08:08:32;;;;;;;;;;;;;;;26.09;24.90;100098.03;10707365;27;20475;-74
2023/04/25 08:13:34;;;;;;;;;;;;;;;25.92;23.44;100107.22;10633819;27;19923;-74
2023/04/25 08:18:37;;;;;;;;;;;;;;;25.35;22.91;100096.59;10706503;27;19930;-76
2023/04/25 08:23:39;;;;;;;;;;;;;;;25.66;23.16;100109.13;10711081;27;19930;-76
2023/04/25 08:28:50;;;;;;;;;;;;;;;25.22;21.61;100109.34;10699445;27;19930;-76
2023/04/25 08:33:52;;;;;;;;;;;;;;;24.60;22.77;100106.50;10654058;27;19923;-76
2023/04/25 08:39:03;;;;;;;;;;;;;;;24.69;22.68;100106.19;10677804;27;19923;-76
2023/04/25 08:44:06;;;;;;;;;;;;;;;25.02;22.03;100105.22;10682831;27;19966;-76
2023/04/25 08:49:11;;;;;;;;;;;;;;;25.06;22.69;100094.81;10650335;27;19923;-75
2023/04/25 08:54:14;;;;;;;;;;;;;;;25.23;22.86;100097.72;10676820;27;19927;-76
2023/04/25 08:59:16;;;;;;;;;;;;;;;25.25;22.11;100094.50;10669184;27;19923;-76
2023/04/25 09:04:20;;;;;;;;;;;;;;;25.28;21.13;100090.91;10632431;27;19923;-76
2023/04/25 09:09:23;;;;;;;;;;;;;;;25.06;21.34;100092.00;10643391;27;20016;-77
2023/04/25 09:14:27;;;;;;;;;;;;;;;24.94;22.65;100093.09;10658483;27;19930;-75
2023/04/25 09:19:45;;;;;;;;;;;;;;;25.04;22.41;100091.59;10639502;27;20273;-76
2023/04/25 09:25:01;;;;;;;;;;;;;;;23.81;23.12;100090.94;10623025;27;19924;-75
2023/04/25 09:30:06;;;;;;;;;;;;;;;22.87;23.40;100090.09;10624189;27;19930;-76
2023/04/25 09:35:24;;;;;;;;;;;;;;;22.64;24.54;100086.53;10637349;27;19927;-77
2023/04/25 09:40:27;;;;;;;;;;;;;;;22.53;25.73;100083.56;10633000;27;19930;-76
2023/04/25 09:45:45;;;;;;;;;;;;;;;22.49;24.97;100091.91;10626969;27;20278;-76
2023/04/25 09:51:03;;;;;;;;;;;;;;;22.38;24.55;100090.91;10637743;27;19923;-77
2023/04/25 09:56:06;;;;;;;;;;;;;;;22.42;24.31;100086.19;10637641;27;19923;-77
2023/04/25 10:01:13;;;;;;;;;;;;;;;22.03;25.42;100093.84;10623681;27;20270;-77
2023/04/25 10:06:29;;;;;;;;;;;;;;;22.17;24.65;100099.72;10664369;27;20473;-76
2023/04/25 10:11:31;;;;;;;;;;;;;;;21.88;25.16;100098.41;10743347;27;19922;-75
2023/04/25 10:16:33;;;;;;;;;;;;;;;21.85;25.14;100089.94;10723617;27;19922;-74
2023/04/25 10:21:35;;;;;;;;;;;;;;;21.94;24.92;100093.31;10649820;27;19919;-76
2023/04/25 10:26:37;;;;;;;;;;;;;;;22.09;25.04;100097.19;10636490;27;20376;-76
2023/04/25 10:31:44;;;;;;;;;;;;;;;22.15;25.07;100101.28;10635782;27;19930;-76
2023/04/25 10:36:51;;;;;;;;;;;;;;;21.58;24.67;100109.38;10620940;27;19923;-75
2023/04/25 10:41:55;;;;;;;;;;;;;;;21.54;24.77;100113.28;10619424;27;20377;-76
2023/04/25 10:47:01;;;;;;;;;;;;;;;21.65;25.05;100103.13;10643303;27;19923;-76
2023/04/25 10:52:12;;;;;;;;;;;;;;;21.51;25.62;100106.44;10671645;27;19930;-76
2023/04/25 10:57:33;;;;;;;;;;;;;;;21.16;25.89;100120.41;10658688;27;20244;-75
2023/04/25 11:02:42;;;;;;;;;;;;;;;21.12;26.60;100115.94;10618503;27;19923;-76
2023/04/25 11:07:51;;;;;;;;;;;;;;;21.32;26.70;100106.44;10647935;27;19923;-76
2023/04/25 11:12:53;;;;;;;;;;;;;;;21.44;26.82;100108.28;10649981;27;20061;-77
2023/04/25 11:17:55;;;;;;;;;;;;;;;21.66;26.91;100116.72;10650205;27;19933;-75
2023/04/25 11:22:58;;;;;;;;;;;;;;;21.63;26.11;100125.81;10633108;27;19930;-74
2023/04/25 11:28:01;;;;;;;;;;;;;;;21.76;25.44;100115.31;10606407;28;19930;-74
2023/04/25 11:33:03;;;;;;;;;;;;;;;21.64;26.41;100112.66;10617251;28;19924;-74
2023/04/25 11:38:05;;;;;;;;;;;;;;;21.46;26.60;100101.16;10651569;27;19981;-73
2023/04/25 11:43:07;;;;;;;;;;;;;;;21.55;25.93;100109.31;10639313;27;19924;-74
2023/04/25 11:48:09;;;;;;;;;;;;;;;21.71;25.05;100109.22;10661397;27;20441;-74
2023/04/25 11:53:10;;;;;;;;;;;;;;;21.45;25.82;100112.69;10629911;27;19930;-72
2023/04/25 11:58:13;;;;;;;;;;;;;;;21.26;25.94;100111.50;10641034;27;20435;-73
2023/04/25 12:03:15;;;;;;;;;;;;;;;21.33;26.08;100105.25;10638088;27;19923;-74
2023/04/25 12:08:17;;;;;;;;;;;;;;;21.32;25.03;100098.06;10635009;27;19935;-74
2023/04/25 12:13:20;;;;;;;;;;;;;;;21.21;25.84;100099.78;10624737;27;19924;-73
2023/04/25 12:18:23;;;;;;;;;;;;;;;21.33;25.16;100100.47;10630535;27;19924;-76
2023/04/25 12:23:28;;;;;;;;;;;;;;;21.34;25.18;100092.91;10635510;27;19924;-76
2023/04/25 12:28:32;;;;;;;;;;;;;;;21.13;25.22;100079.28;10675618;27;19923;-76
2023/04/25 12:33:35;;;;;;;;;;;;;;;21.06;25.83;100082.75;10663771;27;20408;-76
2023/04/25 12:38:38;;;;;;;;;;;;;;;21.15;25.75;100088.09;10699548;27;20309;-75
2023/04/25 12:43:40;;;;;;;;;;;;;;;21.29;26.05;100080.06;10677468;27;19923;-76
2023/04/25 12:48:42;;;;;;;;;;;;;;;21.45;25.28;100088.38;10698150;27;19923;-76
2023/04/25 12:53:44;;;;;;;;;;;;;;;21.32;25.24;100081.31;10697882;27;19927;-76
2023/04/25 12:58:47;;;;;;;;;;;;;;;21.22;25.65;100084.66;10677115;27;20402;-76
2023/04/25 13:03:49;;;;;;;;;;;;;;;21.02;25.62;100081.06;10694369;27;19923;-76
2023/04/25 13:08:51;;;;;;;;;;;;;;;21.12;25.38;100074.06;10698015;27;19927;-76
2023/04/25 13:13:58;;;;;;;;;;;;;;;21.12;25.17;100069.31;10692304;27;19929;-76
2023/04/25 13:19:00;;;;;;;;;;;;;;;21.09;25.58;100056.09;10662717;27;19927;-76
2023/04/25 13:24:02;;;;;;;;;;;;;;;21.10;25.93;100057.72;10678990;27;19930;-75
2023/04/25 13:29:04;;;;;;;;;;;;;;;21.19;25.67;100063.09;10679759;27;20345;-76
2023/04/25 13:34:06;;;;;;;;;;;;;;;21.08;26.01;100049.69;10693624;27;19922;-76
2023/04/25 13:39:08;;;;;;;;;;;;;;;21.07;25.65;100061.22;10682199;27;20396;-76
2023/04/25 13:44:10;;;;;;;;;;;;;;;20.98;26.38;100055.03;10661331;27;19923;-76
2023/04/25 13:49:12;;;;;;;;;;;;;;;20.86;26.40;100052.41;10689943;27;19923;-77
2023/04/25 13:54:14;;;;;;;;;;;;;;;20.88;26.11;100048.06;10697219;27;20022;-76
2023/04/25 13:59:16;;;;;;;;;;;;;;;20.90;26.51;100042.13;10696577;27;19929;-75
2023/04/25 14:04:17;;;;;;;;;;;;;;;21.08;26.18;100040.53;10691716;27;19931;-76
2023/04/25 14:09:22;;;;;;;;;;;;;;;21.01;25.55;100029.22;10695794;27;19934;-76
2023/04/25 14:14:24;;;;;;;;;;;;;;;21.07;25.41;100033.34;10696843;27;19923;-76
2023/04/25 14:19:26;;;;;;;;;;;;;;;21.05;25.48;100028.13;10641554;27;19923;-74
2023/04/25 14:24:28;;;;;;;;;;;;;;;21.10;25.83;100031.78;10657567;27;19923;-74
2023/04/25 14:29:30;;;;;;;;;;;;;;;21.02;26.08;100031.66;10668222;27;20334;-74
2023/04/25 14:34:32;;;;;;;;;;;;;;;20.99;26.08;100020.41;10682681;27;20391;-76
2023/04/25 14:39:34;;;;;;;;;;;;;;;21.00;25.93;100033.16;10671805;27;19923;-75
2023/04/25 14:44:36;;;;;;;;;;;;;;;20.92;25.80;100025.84;10696274;27;19930;-75
2023/04/25 14:49:38;;;;;;;;;;;;;;;20.85;25.70;100022.91;10655980;27;19922;-73
2023/04/25 14:54:40;;;;;;;;;;;;;;;20.77;25.88;100024.72;10693888;27;19923;-73
2023/04/25 14:59:43;;;;;;;;;;;;;;;20.63;25.98;100011.25;10671988;27;19923;-73
2023/04/25 15:04:45;;;;;;;;;;;;;;;20.44;25.95;100014.00;10674122;27;19927;-73
2023/04/25 15:09:48;;;;;;;;;;;;;;;20.43;26.19;100026.31;10627094;27;20353;-74
2023/04/25 15:14:50;;;;;;;;;;;;;;;20.38;26.99;100007.06;10655167;27;19927;-74
2023/04/25 15:19:54;;;;;;;;;;;;;;;20.38;26.45;100026.56;10688475;27;19923;-75
2023/04/25 15:24:56;;;;;;;;;;;;;;;20.24;26.90;100009.50;10676568;27;19923;-74
2023/04/25 15:30:00;;;;;;;;;;;;;;;20.15;27.07;100007.75;10663160;27;20132;-73
2023/04/25 15:35:03;;;;;;;;;;;;;;;;;;10685464;27;19982;-73
2023/04/25 15:40:13;;;;;;;;;;;;;;;19.93;27.51;100001.97;10670397;27;20392;-74
2023/04/25 15:45:16;;;;;;;;;;;;;;;19.95;27.39;99999.63;10655244;27;20045;-73
2023/04/25 15:50:18;;;;;;;;;;;;;;;19.87;27.22;99995.88;10672508;27;19927;-74
2023/04/25 15:55:20;;;;;;;;;;;;;;;19.82;27.79;99993.38;10667433;27;19982;-74
2023/04/25 16:00:22;;;;;;;;;;;;;;;19.68;27.99;99998.56;10662432;27;19927;-74
2023/04/25 16:05:24;;;;;;;;;;;;;;;19.61;27.87;99990.81;10645856;27;19923;-74
2023/04/25 16:10:26;;;;;;;;;;;;;;;19.46;27.66;99994.38;10635116;27;19927;-74
2023/04/25 16:15:29;;;;;;;;;;;;;;;19.38;28.31;99998.13;10600112;27;19923;-75
2023/04/25 16:20:31;;;;;;;;;;;;;;;19.27;28.07;99995.06;10658879;27;20309;-75
2023/04/25 16:25:33;;;;;;;;;;;;;;;19.24;28.24;99993.78;10657624;27;19938;-75
2023/04/25 16:30:35;;;;;;;;;;;;;;;19.12;27.95;99990.28;10682350;27;19923;-73
2023/04/25 16:35:38;;;;;;;;;;;;;;;18.97;28.11;99997.38;10648953;27;19930;-75
2023/04/25 16:40:40;;;;;;;;;;;;;;;18.89;28.25;99990.78;10690221;27;20407;-75
2023/04/25 16:45:42;;;;;;;;;;;;;;;18.83;28.53;99983.88;10678579;27;19923;-76
2023/04/25 16:50:50;;;;;;;;;;;;;;;18.81;28.87;99994.53;10693187;27;19923;-74
2023/04/25 16:55:52;;;;;;;;;;;;;;;18.76;30.44;100008.69;10660026;27;19923;-75
2023/04/25 17:00:55;;;;;;;;;;;;;;;18.78;29.08;100008.34;10640643;27;19931;-75
2023/04/25 17:05:59;;;;;;;;;;;;;;;18.77;29.60;99996.41;10663107;27;19923;-74
2023/04/25 17:11:01;;;;;;;;;;;;;;;18.73;28.61;100003.81;10652975;27;20013;-75
2023/04/25 17:16:04;;;;;;;;;;;;;;;18.78;29.97;100003.59;10662807;27;20411;-74
2023/04/25 17:21:07;;;;;;;;;;;;;;;18.70;29.43;100007.31;10637149;27;19934;-73
2023/04/25 17:26:13;;;;;;;;;;;;;;;18.65;30.14;100004.78;10641847;27;19923;-73
2023/04/25 17:31:16;;;;;;;;;;;;;;;18.51;29.29;100007.06;10654683;27;19930;-76
2023/04/25 17:36:18;;;;;;;;;;;;;;;18.31;29.68;100006.88;10624816;27;19923;-75
2023/04/25 17:41:21;;;;;;;;;;;;;;;18.08;29.62;100011.28;10641927;27;19935;-74
2023/04/25 17:52:16;;;;;;;;;;;;;;;17.90;29.62;100012.66;10638978;27;19926;-75
2023/04/25 17:57:21;;;;;;;;;;;;;;;17.81;30.26;100014.72;10670844;27;19927;-76
2023/04/25 18:02:23;;;;;;;;;;;;;;;17.78;30.13;100019.00;10683188;27;19934;-75
2023/04/25 18:07:26;;;;;;;;;;;;;;;17.65;30.24;100018.13;10669080;27;19934;-78
2023/04/25 18:12:28;;;;;;;;;;;;;;;17.59;30.18;100016.75;10659307;27;19927;-78
2023/04/25 18:17:39;;;;;;;;;;;;;;;17.45;30.58;100024.56;10657551;27;20304;-78
2023/04/25 18:22:41;;;;;;;;;;;;;;;17.29;30.67;100027.16;10667594;27;19928;-79
2023/04/25 18:27:44;;;;;;;;;;;;;;;17.26;31.23;100025.06;10647083;27;19923;-73
2023/04/25 18:32:46;;;;;;;;;;;;;;;17.18;31.78;100025.94;10662961;27;20328;-77
2023/04/25 18:37:48;;;;;;;;;;;;;;;17.35;31.97;100028.56;10671993;27;19923;-77
2023/04/25 18:42:55;;;;;;;;;;;;;;;17.36;31.81;100021.88;10667169;27;20427;-78
2023/04/25 18:47:58;;;;;;;;;;;;;;;17.19;31.88;100030.38;10674546;27;19934;-77
2023/04/25 18:53:00;;;;;;;;;;;;;;;17.10;31.85;100035.16;10670278;27;19923;-75
2023/04/25 18:58:02;;;;;;;;;;;;;;;16.94;32.10;100032.19;10666799;27;20292;-77
2023/04/25 19:03:05;;;;;;;;;;;;;;;16.80;32.42;100038.00;10622964;27;19927;-77
2023/04/25 19:08:07;;;;;;;;;;;;;;;16.69;32.69;100041.53;10654632;27;19942;-77
2023/04/25 19:13:09;;;;;;;;;;;;;;;16.60;33.23;100036.00;10698958;27;19929;-76
2023/04/25 19:18:11;;;;;;;;;;;;;;;16.48;33.45;100036.72;10676525;27;19923;-74
2023/04/25 19:23:13;;;;;;;;;;;;;;;16.34;33.87;100046.44;10667722;27;19930;-75
2023/04/25 19:28:15;;;;;;;;;;;;;;;16.29;33.78;100044.66;10639391;27;19923;-76
2023/04/25 19:33:18;;;;;;;;;;;;;;;16.23;33.75;100046.00;10656128;27;19930;-75
2023/04/25 19:38:20;;;;;;;;;;;;;;;16.11;34.27;100040.34;10646710;27;20418;-75
2023/04/25 19:43:25;;;;;;;;;;;;;;;16.06;33.76;100032.22;10665293;27;20347;-75
2023/04/25 19:48:27;;;;;;;;;;;;;;;15.99;34.11;100032.78;10669650;27;19922;-73
2023/04/25 19:53:30;;;;;;;;;;;;;;;15.95;34.18;100029.00;10674333;27;19923;-77
2023/04/25 19:58:33;;;;;;;;;;;;;;;15.89;34.09;100025.63;10670081;27;19930;-74
2023/04/25 20:03:35;;;;;;;;;;;;;;;15.80;34.14;100030.41;10686497;27;19923;-73
2023/04/25 20:08:37;;;;;;;;;;;;;;;15.77;34.59;100033.81;10685882;27;19927;-76
2023/04/25 20:13:39;;;;;;;;;;;;;;;15.68;34.38;100027.50;10675564;27;19923;-76
2023/04/25 20:18:41;;;;;;;;;;;;;;;15.70;34.67;100027.97;10699618;27;20299;-77
2023/04/25 20:23:43;;;;;;;;;;;;;;;15.66;34.77;100021.50;10698126;27;19930;-74
2023/04/25 20:28:45;;;;;;;;;;;;;;;15.65;34.50;100019.88;10692530;27;19923;-76
2023/04/25 20:33:47;;;;;;;;;;;;;;;15.64;34.92;100021.00;10695456;27;19927;-77
2023/04/25 20:38:49;;;;;;;;;;;;;;;15.67;34.85;100017.59;10688427;27;19983;-75
2023/04/25 20:43:52;;;;;;;;;;;;;;;15.67;35.11;100012.84;10682763;27;19930;-74
2023/04/25 20:48:54;;;;;;;;;;;;;;;15.67;34.93;100007.31;10659641;27;20308;-75
2023/04/25 20:53:56;;;;;;;;;;;;;;;15.73;34.82;100009.91;10694155;27;19927;-75
2023/04/25 20:58:58;;;;;;;;;;;;;;;15.74;35.11;100011.53;10672922;27;19923;-75
2023/04/25 21:04:00;;;;;;;;;;;;;;;15.72;35.03;100008.28;10677871;27;19923;-75
2023/04/25 21:09:03;;;;;;;;;;;;;;;15.67;35.46;100006.53;10673510;27;20346;-76
2023/04/25 21:14:06;;;;;;;;;;;;;;;15.62;35.64;100010.28;10685702;27;19930;-76
2023/04/25 21:19:08;;;;;;;;;;;;;;;15.64;35.15;100012.72;10681552;27;19923;-73
2023/04/25 21:24:12;;;;;;;;;;;;;;;15.55;35.86;100003.59;10686715;27;19923;-75
2023/04/25 21:29:14;;;;;;;;;;;;;;;15.49;36.23;100004.91;10696962;27;19923;-74
2023/04/25 21:34:16;;;;;;;;;;;;;;;15.34;36.13;100012.59;10669561;27;19923;-75
2023/04/25 21:39:18;;;;;;;;;;;;;;;15.22;36.91;100009.66;10671555;27;19923;-74
2023/04/25 21:44:20;;;;;;;;;;;;;;;15.15;36.67;100003.84;10651315;27;19927;-74
2023/04/25 21:49:28;;;;;;;;;;;;;;;15.05;36.99;100006.94;10677544;27;19923;-75
2023/04/25 21:54:29;;;;;;;;;;;;;;;14.97;37.29;100003.03;10686445;27;19935;-75
2023/04/25 21:59:31;;;;;;;;;;;;;;;14.93;37.55;99999.31;10665472;27;19934;-75
2023/04/25 22:04:33;;;;;;;;;;;;;;;14.88;37.41;99993.13;10667579;27;19923;-75
2023/04/25 22:09:35;;;;;;;;;;;;;;;14.80;37.52;99993.94;10667419;27;19930;-75
2023/04/25 22:14:37;;;;;;;;;;;;;;;14.76;37.39;99985.50;10681163;27;19934;-75
2023/04/25 22:19:40;;;;;;;;;;;;;;;14.75;38.25;99989.38;10668066;27;19923;-75
2023/04/25 22:24:43;;;;;;;;;;;;;;;14.74;37.79;99979.47;10682456;27;19930;-75
2023/04/25 22:29:45;;;;;;;;;;;;;;;14.75;38.11;99981.94;10668657;27;19943;-75
2023/04/25 22:34:47;;;;;;;;;;;;;;;14.74;38.65;99980.28;10670831;27;19945;-75
2023/04/25 22:39:50;;;;;;;;;;;;;;;14.67;38.27;99985.50;10688344;27;19946;-75
2023/04/25 22:44:52;;;;;;;;;;;;;;;14.61;38.49;99988.75;10698325;27;19938;-75
2023/04/25 22:49:56;;;;;;;;;;;;;;;14.56;38.19;99986.13;10661988;27;19923;-74
2023/04/25 22:54:58;;;;;;;;;;;;;;;14.47;38.42;99975.09;10669332;27;19923;-74
2023/04/25 23:00:00;;;;;;;;;;;;;;;14.36;38.87;99976.50;10656191;27;19923;-74
2023/04/25 23:05:05;;;;;;;;;;;;;;;14.31;38.87;99973.91;10676525;27;20281;-74
2023/04/25 23:10:07;;;;;;;;;;;;;;;14.31;38.89;99971.94;10678837;27;19949;-74
2023/04/25 23:15:11;;;;;;;;;;;;;;;14.29;39.38;99962.38;10684024;27;19924;-74
2023/04/25 23:20:13;;;;;;;;;;;;;;;14.29;39.23;99963.19;10679325;27;19929;-74
2023/04/25 23:25:15;;;;;;;;;;;;;;;14.40;39.05;99966.44;10685301;27;19923;-74
2023/04/25 23:30:17;;;;;;;;;;;;;;;14.40;38.65;99955.38;10650564;27;19923;-74
2023/04/25 23:35:19;;;;;;;;;;;;;;;14.56;39.24;99951.03;10672948;27;19928;-74
2023/04/25 23:40:21;;;;;;;;;;;;;;;14.60;38.82;99946.53;10644427;27;20285;-74
2023/04/25 23:45:23;;;;;;;;;;;;;;;14.66;38.79;99945.22;10668827;27;19923;-74
2023/04/25 23:50:25;;;;;;;;;;;;;;;14.58;38.94;99947.97;10640120;27;20339;-74
2023/04/25 23:55:27;;;;;;;;;;;;;;;14.55;38.69;99943.91;10675276;27;20392;-74
